Time;durP1;ratioP1;P1;durP2;ratioP2;P2;SDS_P1;SDS_P2;PMS_P1;PMS_P2;Temp;Humidity;BMP_temperature;BMP_pressure;BME280_temperature;BME280_humidity;BME280_pressure;Samples;Min_cycle;Max_cycle;Signal;HPM_P1;HPM_P2
2022/11/16 00:01:46;;;;;;;;;;;24.00;35.50;;;;;;491003;242;1273;-74
2022/11/16 00:03:48;;;;;;;;;;;24.10;35.50;;;;;;490918;242;1173;-74
2022/11/16 00:05:49;;;;;;;;;;;24.10;35.30;;;;;;491002;242;1155;-74
2022/11/16 00:07:50;;;;;;;;;;;24.10;35.30;;;;;;491110;242;1300;-74
2022/11/16 00:09:52;;;;;;;;;;;24.20;35.30;;;;;;491087;242;2201;-74
2022/11/16 00:11:53;;;;;;;;;;;24.20;35.10;;;;;;490907;242;1199;-74
2022/11/16 00:13:54;;;;;;;;;;;24.30;35.10;;;;;;490861;242;1205;-74
2022/11/16 00:15:56;;;;;;;;;;;24.20;35.10;;;;;;490914;242;1356;-74
2022/11/16 00:17:57;;;;;;;;;;;24.30;35.00;;;;;;490865;242;1169;-74
2022/11/16 00:19:58;;;;;;;;;;;24.40;35.00;;;;;;491017;242;1128;-74
2022/11/16 00:22:00;;;;;;;;;;;24.30;34.90;;;;;;490984;242;1152;-74
2022/11/16 00:24:01;;;;;;;;;;;24.30;34.90;;;;;;490889;242;1168;-74
2022/11/16 00:26:03;;;;;;;;;;;24.30;35.00;;;;;;490969;242;1138;-74
2022/11/16 00:28:04;;;;;;;;;;;24.20;35.00;;;;;;490840;242;1175;-74
2022/11/16 00:30:06;;;;;;;;;;;24.30;35.00;;;;;;490952;242;2200;-74
2022/11/16 00:32:07;;;;;;;;;;;24.20;35.10;;;;;;490879;242;1104;-74
2022/11/16 00:34:08;;;;;;;;;;;24.10;35.10;;;;;;491023;242;1231;-74
2022/11/16 00:36:09;;;;;;;;;;;24.10;35.20;;;;;;490935;242;1203;-74
2022/11/16 00:38:11;;;;;;;;;;;24.00;35.30;;;;;;490985;242;1174;-74
2022/11/16 00:40:12;;;;;;;;;;;23.90;35.40;;;;;;490875;242;1159;-74
2022/11/16 00:42:13;;;;;;;;;;;23.90;35.40;;;;;;490897;242;1175;-74
2022/11/16 00:44:15;;;;;;;;;;;23.90;35.50;;;;;;490825;242;1277;-74
2022/11/16 00:46:16;;;;;;;;;;;23.80;35.50;;;;;;490785;242;1186;-74
2022/11/16 00:48:17;;;;;;;;;;;23.90;35.50;;;;;;490835;242;1137;-74
2022/11/16 00:50:19;;;;;;;;;;;23.80;35.60;;;;;;490993;242;2161;-74
2022/11/16 00:52:20;;;;;;;;;;;23.70;35.50;;;;;;490983;242;1186;-74
2022/11/16 00:54:21;;;;;;;;;;;23.80;35.60;;;;;;490880;242;1250;-74
2022/11/16 00:56:23;;;;;;;;;;;23.70;35.50;;;;;;490980;242;1266;-75
2022/11/16 00:58:24;;;;;;;;;;;23.70;35.50;;;;;;490915;242;1139;-74
2022/11/16 01:00:25;;;;;;;;;;;23.70;35.50;;;;;;490869;242;1174;-74
2022/11/16 01:02:28;;;;;;;;;;;23.70;35.50;;;;;;490983;242;1180;-74
2022/11/16 01:04:28;;;;;;;;;;;23.80;35.50;;;;;;490799;242;1245;-74
2022/11/16 01:06:30;;;;;;;;;;;23.70;35.40;;;;;;490939;242;1212;-74
2022/11/16 01:08:31;;;;;;;;;;;23.60;35.40;;;;;;490860;242;1201;-74
2022/11/16 01:10:32;;;;;;;;;;;23.50;35.60;;;;;;490975;242;2197;-74
2022/11/16 01:12:34;;;;;;;;;;;23.50;35.60;;;;;;490912;242;1190;-74
2022/11/16 01:14:35;;;;;;;;;;;23.60;35.60;;;;;;490862;242;1194;-75
2022/11/16 01:16:36;;;;;;;;;;;23.70;35.50;;;;;;491019;242;1166;-74
2022/11/16 01:18:38;;;;;;;;;;;23.70;35.50;;;;;;490857;242;1209;-75
2022/11/16 01:20:39;;;;;;;;;;;23.70;35.30;;;;;;490792;242;1217;-74
2022/11/16 01:22:40;;;;;;;;;;;23.80;35.30;;;;;;490991;242;1154;-74
2022/11/16 01:24:42;;;;;;;;;;;23.90;35.40;;;;;;490896;242;1374;-74
2022/11/16 01:26:43;;;;;;;;;;;24.00;35.20;;;;;;490941;242;1216;-74
2022/11/16 01:28:44;;;;;;;;;;;24.00;35.20;;;;;;490916;242;1191;-74
2022/11/16 01:30:46;;;;;;;;;;;24.00;35.80;;;;;;490914;242;2165;-74
2022/11/16 01:32:47;;;;;;;;;;;24.00;36.60;;;;;;490863;242;1169;-74
2022/11/16 01:34:49;;;;;;;;;;;24.00;37.20;;;;;;490935;242;1313;-74
2022/11/16 01:36:50;;;;;;;;;;;24.00;37.60;;;;;;490876;242;1170;-74
2022/11/16 01:38:51;;;;;;;;;;;23.90;37.20;;;;;;490889;242;1268;-74
2022/11/16 01:40:53;;;;;;;;;;;23.90;37.30;;;;;;490918;242;1085;-74
2022/11/16 01:42:54;;;;;;;;;;;23.90;37.00;;;;;;490958;242;1273;-74
2022/11/16 01:44:55;;;;;;;;;;;23.80;37.00;;;;;;490898;242;1247;-74
2022/11/16 01:46:57;;;;;;;;;;;23.80;37.10;;;;;;490925;242;1179;-74
2022/11/16 01:48:58;;;;;;;;;;;23.80;37.00;;;;;;490948;242;1193;-74
2022/11/16 01:50:59;;;;;;;;;;;23.70;37.00;;;;;;490915;242;2188;-74
2022/11/16 01:53:01;;;;;;;;;;;23.70;36.80;;;;;;491012;242;1275;-74
2022/11/16 01:55:02;;;;;;;;;;;23.70;37.00;;;;;;490893;242;1122;-74
2022/11/16 01:57:03;;;;;;;;;;;23.70;36.70;;;;;;490911;242;1177;-74
2022/11/16 01:59:05;;;;;;;;;;;23.60;36.70;;;;;;490908;242;1226;-74
2022/11/16 02:01:06;;;;;;;;;;;23.50;36.60;;;;;;490900;242;1220;-74
2022/11/16 02:03:07;;;;;;;;;;;23.40;36.80;;;;;;490988;242;1151;-74
2022/11/16 02:05:09;;;;;;;;;;;23.40;36.80;;;;;;490901;242;1113;-74
2022/11/16 02:07:10;;;;;;;;;;;23.40;36.80;;;;;;490882;242;1157;-74
2022/11/16 02:11:30;;;;;;;;;;;23.50;36.70;;;;;;490901;243;2161;-74
2022/11/16 02:13:32;;;;;;;;;;;23.50;36.80;;;;;;490981;242;1186;-74
2022/11/16 02:15:33;;;;;;;;;;;23.50;36.70;;;;;;490917;242;1241;-75
2022/11/16 02:17:34;;;;;;;;;;;23.50;36.50;;;;;;490862;242;1171;-74
2022/11/16 02:19:36;;;;;;;;;;;23.50;36.50;;;;;;490925;242;1168;-74
2022/11/16 02:21:37;;;;;;;;;;;23.60;36.60;;;;;;490886;242;1314;-75
2022/11/16 02:23:38;;;;;;;;;;;23.70;36.80;;;;;;490842;242;1168;-74
2022/11/16 02:25:40;;;;;;;;;;;23.80;36.50;;;;;;490954;242;1293;-75
2022/11/16 02:27:41;;;;;;;;;;;23.80;36.60;;;;;;491028;242;1170;-74
2022/11/16 02:29:42;;;;;;;;;;;23.90;36.80;;;;;;490918;242;1227;-74
2022/11/16 02:31:44;;;;;;;;;;;23.90;36.50;;;;;;490902;242;2196;-74
2022/11/16 02:33:45;;;;;;;;;;;23.90;36.40;;;;;;490937;242;1187;-74
2022/11/16 02:35:46;;;;;;;;;;;23.90;36.70;;;;;;490972;242;1157;-74
2022/11/16 02:37:48;;;;;;;;;;;23.90;36.60;;;;;;490950;242;1219;-74
2022/11/16 02:39:49;;;;;;;;;;;23.90;36.40;;;;;;490884;242;1225;-74
2022/11/16 02:41:50;;;;;;;;;;;23.90;36.40;;;;;;490918;242;1205;-74
2022/11/16 02:43:52;;;;;;;;;;;23.90;36.40;;;;;;490946;242;1197;-74
2022/11/16 02:45:53;;;;;;;;;;;23.90;36.40;;;;;;490907;242;1216;-74
2022/11/16 02:47:54;;;;;;;;;;;23.90;36.50;;;;;;490861;242;1339;-74
2022/11/16 02:49:56;;;;;;;;;;;23.80;36.60;;;;;;490955;242;1158;-74
2022/11/16 02:51:57;;;;;;;;;;;23.70;36.90;;;;;;490913;242;2106;-74
2022/11/16 02:53:59;;;;;;;;;;;23.70;36.60;;;;;;490888;242;1201;-74
2022/11/16 02:56:00;;;;;;;;;;;23.70;36.70;;;;;;491068;242;1106;-75
2022/11/16 02:58:01;;;;;;;;;;;23.70;36.60;;;;;;490864;242;1198;-74
2022/11/16 03:00:02;;;;;;;;;;;23.50;36.70;;;;;;490982;242;1193;-74
2022/11/16 03:02:04;;;;;;;;;;;23.50;37.10;;;;;;490935;242;1183;-74
2022/11/16 03:04:05;;;;;;;;;;;23.50;36.80;;;;;;490898;242;1213;-74
2022/11/16 03:06:07;;;;;;;;;;;23.50;36.80;;;;;;490933;242;1224;-74
2022/11/16 03:08:08;;;;;;;;;;;23.50;36.90;;;;;;490801;242;1412;-74
2022/11/16 03:10:09;;;;;;;;;;;23.50;37.00;;;;;;490923;242;1136;-74
2022/11/16 03:12:10;;;;;;;;;;;23.50;36.80;;;;;;491000;242;2113;-74
2022/11/16 03:14:11;;;;;;;;;;;23.60;37.00;;;;;;490978;242;1232;-74
2022/11/16 03:16:13;;;;;;;;;;;23.60;37.00;;;;;;490906;242;1236;-74
2022/11/16 03:18:14;;;;;;;;;;;23.70;36.60;;;;;;490923;242;1172;-74
2022/11/16 03:20:16;;;;;;;;;;;23.60;36.60;;;;;;490799;242;1158;-74
2022/11/16 03:22:17;;;;;;;;;;;23.70;36.90;;;;;;490954;242;1092;-74
2022/11/16 03:24:18;;;;;;;;;;;23.70;36.60;;;;;;491013;242;1786;-75
2022/11/16 03:26:20;;;;;;;;;;;23.70;36.60;;;;;;490966;242;1301;-74
2022/11/16 03:28:21;;;;;;;;;;;23.70;36.50;;;;;;490952;242;1167;-74
2022/11/16 03:30:22;;;;;;;;;;;23.70;36.50;;;;;;490942;242;1179;-74
2022/11/16 03:32:23;;;;;;;;;;;23.70;36.50;;;;;;490977;242;2196;-74
2022/11/16 03:34:25;;;;;;;;;;;23.60;36.60;;;;;;490946;242;1121;-74
2022/11/16 03:36:26;;;;;;;;;;;23.70;36.70;;;;;;490915;242;1163;-74
2022/11/16 03:38:27;;;;;;;;;;;23.60;36.70;;;;;;490939;242;1143;-74
2022/11/16 03:40:29;;;;;;;;;;;23.60;37.00;;;;;;491007;242;1180;-74
2022/11/16 03:42:30;;;;;;;;;;;23.60;36.70;;;;;;490939;242;1221;-74
2022/11/16 03:44:31;;;;;;;;;;;23.70;36.90;;;;;;490872;242;1211;-74
2022/11/16 03:46:33;;;;;;;;;;;23.80;36.70;;;;;;491004;242;1253;-74
2022/11/16 03:48:34;;;;;;;;;;;23.80;36.70;;;;;;490847;242;1207;-74
2022/11/16 03:50:36;;;;;;;;;;;23.90;37.00;;;;;;491000;242;2184;-74
2022/11/16 03:52:37;;;;;;;;;;;23.90;36.50;;;;;;490858;242;1163;-74
2022/11/16 03:54:38;;;;;;;;;;;24.00;36.50;;;;;;490884;242;1192;-75
2022/11/16 03:56:40;;;;;;;;;;;23.90;36.60;;;;;;490994;242;1222;-74
2022/11/16 03:58:41;;;;;;;;;;;23.90;37.00;;;;;;490961;242;1222;-74
2022/11/16 04:00:42;;;;;;;;;;;23.80;36.60;;;;;;490851;242;1581;-74
2022/11/16 04:02:44;;;;;;;;;;;23.70;36.70;;;;;;490928;242;1176;-74
2022/11/16 04:25:38;;;;;;;;;;;23.60;36.70;;;;;;490992;243;1160;-74
2022/11/16 04:29:59;;;;;;;;;;;23.60;36.60;;;;;;491023;243;1161;-74
2022/11/16 04:38:58;;;;;;;;;;;23.40;37.00;;;;;;490947;243;1294;-74
2022/11/16 04:40:59;;;;;;;;;;;23.40;36.60;;;;;;490836;242;1162;-74
2022/11/16 04:43:02;;;;;;;;;;;23.40;37.00;;;;;;490864;242;1237;-74
2022/11/16 04:47:21;;;;;;;;;;;23.50;37.00;;;;;;490948;243;1311;-75
2022/11/16 04:49:23;;;;;;;;;;;23.60;36.80;;;;;;490857;242;1435;-74
2022/11/16 04:51:24;;;;;;;;;;;23.70;36.60;;;;;;490898;242;2187;-75
2022/11/16 04:53:26;;;;;;;;;;;23.80;36.50;;;;;;490880;242;1177;-75
2022/11/16 04:55:27;;;;;;;;;;;23.90;37.00;;;;;;490866;243;1399;-75
2022/11/16 04:57:28;;;;;;;;;;;23.90;36.40;;;;;;491006;242;1414;-74
2022/11/16 04:59:29;;;;;;;;;;;24.00;36.60;;;;;;490868;242;1126;-74
2022/11/16 05:03:54;;;;;;;;;;;23.90;36.50;;;;;;488085;243;1231;-74
2022/11/16 05:05:55;;;;;;;;;;;24.00;37.00;;;;;;491017;242;1391;-75
2022/11/16 05:07:57;;;;;;;;;;;23.90;36.80;;;;;;490966;242;1235;-75
2022/11/16 05:09:58;;;;;;;;;;;23.90;36.70;;;;;;490921;242;1123;-75
2022/11/16 05:11:59;;;;;;;;;;;23.90;36.80;;;;;;490651;242;2180;-74
2022/11/16 05:14:01;;;;;;;;;;;23.80;36.90;;;;;;490919;242;1285;-74
2022/11/16 05:16:02;;;;;;;;;;;23.80;36.90;;;;;;491003;242;1204;-74
2022/11/16 05:18:04;;;;;;;;;;;23.70;36.80;;;;;;490881;242;1278;-74
2022/11/16 05:22:24;;;;;;;;;;;23.70;36.90;;;;;;490917;243;1181;-74
2022/11/16 05:24:35;;;;;;;;;;;23.60;37.20;;;;;;490811;242;1210;-74
2022/11/16 05:26:37;;;;;;;;;;;23.60;36.90;;;;;;490859;242;1227;-75
2022/11/16 05:28:37;;;;;;;;;;;23.60;36.80;;;;;;490795;242;1454;-75
2022/11/16 05:30:39;;;;;;;;;;;23.60;36.80;;;;;;490921;242;1234;-75
2022/11/16 05:32:40;;;;;;;;;;;23.50;36.80;;;;;;490883;242;2184;-75
2022/11/16 05:34:41;;;;;;;;;;;23.50;36.80;;;;;;490953;242;1312;-74
2022/11/16 05:36:43;;;;;;;;;;;23.50;36.80;;;;;;490905;242;1198;-74
2022/11/16 05:38:44;;;;;;;;;;;23.50;36.80;;;;;;490957;242;1225;-74
2022/11/16 05:40:45;;;;;;;;;;;23.50;36.70;;;;;;490838;242;1105;-74
2022/11/16 05:42:47;;;;;;;;;;;23.50;36.60;;;;;;490881;242;1152;-75
2022/11/16 05:44:48;;;;;;;;;;;23.50;36.50;;;;;;490629;242;1139;-74
2022/11/16 05:46:49;;;;;;;;;;;23.30;36.80;;;;;;490953;242;1489;-74
2022/11/16 05:48:50;;;;;;;;;;;23.30;36.90;;;;;;490876;242;1245;-74
2022/11/16 05:50:52;;;;;;;;;;;23.30;36.80;;;;;;490931;242;1229;-74
2022/11/16 05:52:53;;;;;;;;;;;23.30;36.70;;;;;;490916;242;2121;-74
2022/11/16 05:54:54;;;;;;;;;;;23.40;36.60;;;;;;490701;242;1168;-74
2022/11/16 05:56:56;;;;;;;;;;;23.50;36.50;;;;;;490735;242;1175;-74
2022/11/16 05:58:57;;;;;;;;;;;23.50;36.50;;;;;;490870;242;1482;-74
2022/11/16 06:00:59;;;;;;;;;;;23.50;36.50;;;;;;490838;242;1159;-74
2022/11/16 06:03:00;;;;;;;;;;;23.70;36.40;;;;;;490901;242;1218;-74
2022/11/16 06:05:01;;;;;;;;;;;23.80;36.20;;;;;;490948;242;1224;-74
2022/11/16 06:07:03;;;;;;;;;;;23.80;36.00;;;;;;490884;242;1207;-74
2022/11/16 06:09:04;;;;;;;;;;;23.90;36.60;;;;;;490805;242;1177;-74
2022/11/16 06:11:05;;;;;;;;;;;23.90;36.30;;;;;;490780;242;1225;-74
2022/11/16 06:13:07;;;;;;;;;;;23.90;36.40;;;;;;490819;242;2129;-74
2022/11/16 06:15:08;;;;;;;;;;;23.90;36.70;;;;;;490828;242;1268;-75
2022/11/16 06:17:13;;;;;;;;;;;24.00;36.60;;;;;;490685;242;1175;-74
2022/11/16 06:19:11;;;;;;;;;;;23.90;36.50;;;;;;490558;243;1390;-74
2022/11/16 06:21:12;;;;;;;;;;;23.90;36.60;;;;;;490729;242;1217;-74
2022/11/16 06:23:13;;;;;;;;;;;23.80;36.60;;;;;;490858;242;1136;-74
2022/11/16 06:25:15;;;;;;;;;;;23.80;36.80;;;;;;490861;242;1269;-74
2022/11/16 06:27:16;;;;;;;;;;;23.70;36.90;;;;;;490811;242;1327;-74
2022/11/16 06:29:17;;;;;;;;;;;23.70;36.90;;;;;;490628;242;1144;-74
2022/11/16 06:31:18;;;;;;;;;;;23.60;37.00;;;;;;490728;242;1170;-74
2022/11/16 06:33:20;;;;;;;;;;;23.50;37.00;;;;;;490767;242;2232;-74
2022/11/16 06:35:21;;;;;;;;;;;23.60;37.00;;;;;;490694;242;1198;-74
2022/11/16 06:37:22;;;;;;;;;;;23.60;37.00;;;;;;490931;242;1316;-74
2022/11/16 06:39:24;;;;;;;;;;;23.50;37.00;;;;;;490854;242;1281;-74
2022/11/16 06:41:25;;;;;;;;;;;23.50;36.90;;;;;;490688;242;1120;-74
2022/11/16 06:43:26;;;;;;;;;;;23.50;37.00;;;;;;490607;242;1141;-74
2022/11/16 06:45:28;;;;;;;;;;;23.40;36.90;;;;;;490755;242;1175;-74
2022/11/16 06:47:29;;;;;;;;;;;23.30;37.20;;;;;;490772;242;1189;-74
2022/11/16 06:49:30;;;;;;;;;;;23.30;37.20;;;;;;490846;242;1562;-74
2022/11/16 06:51:32;;;;;;;;;;;23.30;37.10;;;;;;490578;242;2180;-74
2022/11/16 06:53:33;;;;;;;;;;;23.30;37.10;;;;;;490630;242;1230;-74
2022/11/16 06:55:34;;;;;;;;;;;23.40;37.10;;;;;;490602;242;1177;-74
2022/11/16 06:57:36;;;;;;;;;;;23.40;37.00;;;;;;490680;242;1599;-74
2022/11/16 06:59:37;;;;;;;;;;;23.40;37.00;;;;;;490622;242;1246;-74
2022/11/16 07:01:38;;;;;;;;;;;23.50;37.40;;;;;;490489;242;1206;-74
2022/11/16 07:03:40;;;;;;;;;;;23.60;37.10;;;;;;490789;242;1163;-75
2022/11/16 07:05:41;;;;;;;;;;;23.60;36.70;;;;;;490713;242;1151;-74
2022/11/16 07:07:42;;;;;;;;;;;23.70;36.80;;;;;;490775;242;1163;-74
2022/11/16 07:09:44;;;;;;;;;;;23.70;37.00;;;;;;490742;242;1149;-74
2022/11/16 07:11:45;;;;;;;;;;;23.80;37.00;;;;;;490480;242;2192;-74
2022/11/16 07:13:47;;;;;;;;;;;24.00;36.80;;;;;;490533;242;1163;-74
2022/11/16 07:15:48;;;;;;;;;;;24.10;36.40;;;;;;490584;242;1427;-74
2022/11/16 07:17:49;;;;;;;;;;;24.40;36.10;;;;;;490697;242;1230;-75
2022/11/16 07:19:50;;;;;;;;;;;24.60;36.00;;;;;;490688;242;1291;-74
2022/11/16 07:21:52;;;;;;;;;;;24.80;35.80;;;;;;490553;242;1345;-74
2022/11/16 07:23:53;;;;;;;;;;;25.10;36.00;;;;;;490590;242;1169;-74
2022/11/16 07:25:54;;;;;;;;;;;25.40;35.30;;;;;;490731;242;1199;-74
2022/11/16 07:27:56;;;;;;;;;;;25.70;35.60;;;;;;490657;242;1181;-74
2022/11/16 07:29:57;;;;;;;;;;;25.90;35.40;;;;;;490630;242;1304;-74
2022/11/16 07:31:58;;;;;;;;;;;26.00;35.00;;;;;;490566;242;2212;-74
2022/11/16 07:34:00;;;;;;;;;;;26.00;35.40;;;;;;490592;242;1218;-74
2022/11/16 07:36:01;;;;;;;;;;;26.10;35.60;;;;;;490633;242;1206;-74
2022/11/16 07:38:03;;;;;;;;;;;26.10;35.80;;;;;;490661;242;1118;-74
2022/11/16 07:40:04;;;;;;;;;;;26.10;36.00;;;;;;490441;242;1200;-74
2022/11/16 07:42:10;;;;;;;;;;;26.10;36.30;;;;;;490448;242;1508;-74
2022/11/16 07:44:07;;;;;;;;;;;26.00;36.60;;;;;;490039;243;1256;-74
2022/11/16 07:46:08;;;;;;;;;;;26.00;36.90;;;;;;490263;242;1198;-74
2022/11/16 07:48:09;;;;;;;;;;;26.00;37.30;;;;;;489651;242;1205;-74
2022/11/16 07:50:11;;;;;;;;;;;25.80;37.40;;;;;;489802;242;1187;-74
2022/11/16 07:52:12;;;;;;;;;;;25.70;37.60;;;;;;490102;242;2176;-74
2022/11/16 07:54:13;;;;;;;;;;;25.60;37.80;;;;;;489969;242;1137;-75
2022/11/16 07:56:15;;;;;;;;;;;25.40;37.80;;;;;;490125;242;1189;-74
2022/11/16 07:58:16;;;;;;;;;;;25.20;37.80;;;;;;490090;242;1290;-74
2022/11/16 08:00:17;;;;;;;;;;;25.00;37.90;;;;;;490342;242;1109;-74
2022/11/16 08:02:19;;;;;;;;;;;24.80;37.90;;;;;;490551;242;1253;-74
2022/11/16 08:04:20;;;;;;;;;;;24.40;38.00;;;;;;490002;242;1204;-74
2022/11/16 08:06:21;;;;;;;;;;;24.10;38.30;;;;;;490011;242;1250;-74
2022/11/16 08:08:23;;;;;;;;;;;23.70;38.60;;;;;;489784;242;1177;-74
2022/11/16 08:10:24;;;;;;;;;;;23.40;39.10;;;;;;490045;242;1133;-74
2022/11/16 08:12:25;;;;;;;;;;;23.10;39.30;;;;;;490283;242;2227;-74
2022/11/16 08:14:27;;;;;;;;;;;22.90;39.40;;;;;;490213;242;1154;-74
2022/11/16 08:16:28;;;;;;;;;;;22.90;39.30;;;;;;490227;242;1105;-74
2022/11/16 08:18:29;;;;;;;;;;;23.00;39.00;;;;;;490061;242;1174;-74
2022/11/16 08:20:31;;;;;;;;;;;23.00;38.80;;;;;;489963;242;1212;-74
2022/11/16 08:22:32;;;;;;;;;;;22.90;39.00;;;;;;490147;243;1222;-74
2022/11/16 08:24:33;;;;;;;;;;;22.80;38.90;;;;;;490368;242;1169;-74
2022/11/16 08:26:34;;;;;;;;;;;22.90;38.70;;;;;;490108;242;1282;-74
2022/11/16 08:28:36;;;;;;;;;;;23.00;38.50;;;;;;490173;242;1165;-74
2022/11/16 08:30:37;;;;;;;;;;;23.20;38.20;;;;;;490129;242;1290;-74
2022/11/16 08:32:40;;;;;;;;;;;23.30;38.00;;;;;;490175;242;2195;-74
2022/11/16 08:34:40;;;;;;;;;;;23.40;37.70;;;;;;489961;243;1611;-74
2022/11/16 08:36:41;;;;;;;;;;;23.60;37.40;;;;;;490231;242;1571;-74
2022/11/16 08:38:43;;;;;;;;;;;23.70;37.20;;;;;;490053;242;1227;-74
2022/11/16 08:40:44;;;;;;;;;;;23.70;37.00;;;;;;490019;242;1188;-73
2022/11/16 08:42:45;;;;;;;;;;;23.80;36.80;;;;;;490018;242;1801;-73
2022/11/16 08:44:46;;;;;;;;;;;23.90;36.70;;;;;;490127;242;1186;-74
2022/11/16 08:46:48;;;;;;;;;;;23.90;36.60;;;;;;490091;242;1158;-74
2022/11/16 08:48:49;;;;;;;;;;;24.00;36.50;;;;;;490085;242;1141;-74
2022/11/16 08:50:50;;;;;;;;;;;24.00;36.40;;;;;;490206;242;1137;-74
2022/11/16 08:52:52;;;;;;;;;;;24.10;36.20;;;;;;490326;242;2184;-74
2022/11/16 08:54:53;;;;;;;;;;;24.20;36.00;;;;;;490310;242;1159;-74
2022/11/16 08:56:54;;;;;;;;;;;24.30;35.90;;;;;;490382;242;1168;-74
2022/11/16 08:58:56;;;;;;;;;;;24.30;35.90;;;;;;490071;242;1329;-74
2022/11/16 09:00:57;;;;;;;;;;;24.30;35.90;;;;;;490138;242;1182;-74
2022/11/16 09:02:58;;;;;;;;;;;24.30;35.80;;;;;;490323;242;1161;-75
2022/11/16 09:05:00;;;;;;;;;;;24.40;35.80;;;;;;490336;242;1185;-74
2022/11/16 09:07:01;;;;;;;;;;;24.40;35.70;;;;;;490144;242;1253;-75
2022/11/16 09:09:02;;;;;;;;;;;24.40;35.70;;;;;;490444;242;1129;-74
2022/11/16 09:11:04;;;;;;;;;;;24.40;35.60;;;;;;490109;242;1144;-74
2022/11/16 09:13:05;;;;;;;;;;;24.50;35.60;;;;;;490265;242;2189;-74
2022/11/16 09:15:06;;;;;;;;;;;24.60;35.50;;;;;;490428;242;1171;-74
2022/11/16 09:17:08;;;;;;;;;;;24.60;35.50;;;;;;490384;242;1132;-74
2022/11/16 09:19:09;;;;;;;;;;;24.70;35.40;;;;;;490203;242;1103;-74
2022/11/16 09:21:10;;;;;;;;;;;24.70;35.40;;;;;;490237;242;1085;-74
2022/11/16 09:23:12;;;;;;;;;;;24.80;35.30;;;;;;490258;242;1068;-74
2022/11/16 09:25:13;;;;;;;;;;;24.90;35.20;;;;;;490498;242;1268;-74
2022/11/16 09:27:15;;;;;;;;;;;24.90;35.30;;;;;;490369;242;1186;-74
2022/11/16 09:29:15;;;;;;;;;;;24.90;35.30;;;;;;490222;242;1306;-74
2022/11/16 09:31:17;;;;;;;;;;;25.00;35.20;;;;;;490311;242;1130;-74
2022/11/16 09:33:18;;;;;;;;;;;25.20;35.00;;;;;;490349;242;2192;-74
2022/11/16 09:35:20;;;;;;;;;;;25.30;34.90;;;;;;490515;242;1181;-74
2022/11/16 09:37:21;;;;;;;;;;;25.40;34.80;;;;;;490245;242;1238;-74
2022/11/16 09:39:22;;;;;;;;;;;25.40;34.80;;;;;;490303;242;1199;-74
2022/11/16 09:41:24;;;;;;;;;;;25.50;34.90;;;;;;490346;242;1230;-74
2022/11/16 09:43:25;;;;;;;;;;;25.50;34.90;;;;;;490310;242;1168;-74
2022/11/16 09:45:27;;;;;;;;;;;25.50;35.00;;;;;;490363;242;1326;-74
2022/11/16 09:47:28;;;;;;;;;;;25.40;35.20;;;;;;490467;242;1143;-74
2022/11/16 09:49:29;;;;;;;;;;;25.20;35.40;;;;;;490351;242;1129;-74
2022/11/16 09:51:31;;;;;;;;;;;25.00;35.70;;;;;;490422;242;1184;-74
2022/11/16 09:53:32;;;;;;;;;;;24.80;36.00;;;;;;490427;242;2153;-74
2022/11/16 09:55:33;;;;;;;;;;;24.50;36.60;;;;;;490351;242;1310;-74
2022/11/16 09:57:35;;;;;;;;;;;24.20;37.10;;;;;;490410;242;1353;-74
2022/11/16 09:59:36;;;;;;;;;;;24.00;37.60;;;;;;490328;242;1223;-74
2022/11/16 10:01:37;;;;;;;;;;;23.80;37.90;;;;;;490315;242;1141;-74
2022/11/16 10:03:39;;;;;;;;;;;23.70;38.10;;;;;;490253;242;1167;-74
2022/11/16 10:05:40;;;;;;;;;;;23.80;38.10;;;;;;490219;242;1170;-74
2022/11/16 10:07:41;;;;;;;;;;;23.90;38.00;;;;;;490297;242;1085;-74
2022/11/16 10:09:43;;;;;;;;;;;24.10;37.80;;;;;;490113;242;1163;-74
2022/11/16 10:11:44;;;;;;;;;;;24.30;37.60;;;;;;490073;242;1146;-74
2022/11/16 10:13:46;;;;;;;;;;;24.40;37.40;;;;;;489915;242;2188;-74
2022/11/16 10:15:47;;;;;;;;;;;24.50;37.20;;;;;;490034;242;1138;-74
2022/11/16 10:17:48;;;;;;;;;;;24.50;37.10;;;;;;490207;242;1105;-74
2022/11/16 10:19:50;;;;;;;;;;;24.70;37.00;;;;;;489995;242;1102;-74
2022/11/16 10:21:51;;;;;;;;;;;24.70;37.00;;;;;;490150;242;1145;-74
2022/11/16 10:23:52;;;;;;;;;;;24.70;37.00;;;;;;490278;242;1121;-74
2022/11/16 10:25:54;;;;;;;;;;;24.80;37.10;;;;;;490260;242;1349;-74
2022/11/16 10:27:55;;;;;;;;;;;24.70;37.20;;;;;;490274;242;1081;-74
2022/11/16 10:29:56;;;;;;;;;;;24.60;37.30;;;;;;490140;242;1129;-73
2022/11/16 10:31:58;;;;;;;;;;;24.60;37.50;;;;;;489993;242;1159;-74
2022/11/16 10:33:59;;;;;;;;;;;24.60;37.70;;;;;;489984;242;2200;-74
2022/11/16 10:36:00;;;;;;;;;;;24.50;37.90;;;;;;490047;242;1194;-74
2022/11/16 10:38:03;;;;;;;;;;;24.40;38.20;;;;;;490141;242;1177;-74
2022/11/16 10:40:03;;;;;;;;;;;24.30;38.50;;;;;;490169;243;1455;-74
2022/11/16 10:42:04;;;;;;;;;;;24.10;38.70;;;;;;490291;242;1210;-74
2022/11/16 10:44:06;;;;;;;;;;;24.10;39.00;;;;;;490274;242;1212;-74
2022/11/16 10:46:07;;;;;;;;;;;24.00;39.00;;;;;;490367;242;1149;-74
2022/11/16 10:48:08;;;;;;;;;;;24.00;39.20;;;;;;490250;242;1159;-74
2022/11/16 10:50:10;;;;;;;;;;;23.90;39.40;;;;;;490376;242;1214;-74
2022/11/16 10:52:11;;;;;;;;;;;23.90;39.60;;;;;;490390;242;1201;-74
2022/11/16 10:54:12;;;;;;;;;;;23.70;39.80;;;;;;490281;242;2185;-74
2022/11/16 10:56:14;;;;;;;;;;;23.60;39.90;;;;;;490367;242;1135;-74
2022/11/16 10:58:15;;;;;;;;;;;23.60;40.10;;;;;;490312;242;1172;-74
2022/11/16 11:00:16;;;;;;;;;;;23.50;40.20;;;;;;490378;242;1169;-74
2022/11/16 11:02:18;;;;;;;;;;;23.50;40.30;;;;;;490373;242;1156;-74
2022/11/16 11:04:19;;;;;;;;;;;23.50;40.30;;;;;;490363;242;1206;-74
2022/11/16 11:06:20;;;;;;;;;;;23.40;40.40;;;;;;490440;242;1182;-74
2022/11/16 11:08:22;;;;;;;;;;;23.30;40.60;;;;;;490379;242;1180;-74
2022/11/16 11:10:23;;;;;;;;;;;23.20;40.80;;;;;;490481;242;1141;-74
2022/11/16 11:12:40;;;;;;;;;;;23.10;41.00;;;;;;490319;242;1410;-74
2022/11/16 11:14:41;;;;;;;;;;;23.20;41.10;;;;;;490173;242;2521;-74
2022/11/16 11:16:42;;;;;;;;;;;23.20;41.00;;;;;;490321;242;1154;-74
2022/11/16 11:18:43;;;;;;;;;;;23.20;41.20;;;;;;490275;242;1199;-74
2022/11/16 11:20:45;;;;;;;;;;;23.20;41.10;;;;;;490465;242;1147;-74
2022/11/16 11:22:46;;;;;;;;;;;23.30;41.10;;;;;;490229;242;1106;-74
2022/11/16 11:24:47;;;;;;;;;;;23.40;41.00;;;;;;490457;242;1241;-74
2022/11/16 11:26:49;;;;;;;;;;;23.40;41.00;;;;;;490281;242;1206;-74
2022/11/16 11:28:50;;;;;;;;;;;23.60;40.80;;;;;;490234;242;1257;-74
2022/11/16 11:30:51;;;;;;;;;;;23.80;40.40;;;;;;490502;242;1189;-74
2022/11/16 11:32:53;;;;;;;;;;;23.90;40.10;;;;;;490277;242;1188;-74
2022/11/16 11:34:54;;;;;;;;;;;24.10;39.80;;;;;;490241;242;2208;-74
2022/11/16 11:36:55;;;;;;;;;;;24.20;39.60;;;;;;490398;242;1217;-73
2022/11/16 11:38:57;;;;;;;;;;;24.40;39.30;;;;;;490188;242;1124;-74
2022/11/16 11:40:58;;;;;;;;;;;24.50;39.20;;;;;;490353;242;1267;-74
2022/11/16 11:43:00;;;;;;;;;;;24.60;39.00;;;;;;490163;242;1331;-74
2022/11/16 11:45:01;;;;;;;;;;;24.70;39.00;;;;;;490095;242;1172;-74
2022/11/16 11:47:02;;;;;;;;;;;24.80;38.90;;;;;;490249;242;1108;-74
2022/11/16 11:49:03;;;;;;;;;;;24.80;38.80;;;;;;490322;242;1167;-74
2022/11/16 11:51:05;;;;;;;;;;;24.90;38.60;;;;;;490255;242;1076;-74
2022/11/16 11:53:06;;;;;;;;;;;24.90;38.70;;;;;;490272;242;1187;-74
2022/11/16 11:55:08;;;;;;;;;;;24.90;38.70;;;;;;490259;242;2185;-74
2022/11/16 11:57:09;;;;;;;;;;;25.00;38.60;;;;;;490003;242;1089;-74
2022/11/16 11:59:10;;;;;;;;;;;25.00;38.70;;;;;;490274;242;1222;-74
2022/11/16 12:01:11;;;;;;;;;;;25.00;38.70;;;;;;490151;242;1131;-74
2022/11/16 12:03:13;;;;;;;;;;;24.90;38.90;;;;;;490334;242;1152;-74
2022/11/16 12:05:14;;;;;;;;;;;24.90;39.00;;;;;;490330;242;1087;-74
2022/11/16 12:07:15;;;;;;;;;;;24.80;39.20;;;;;;490175;242;1445;-74
2022/11/16 12:09:17;;;;;;;;;;;24.60;39.40;;;;;;490329;242;1057;-74
2022/11/16 12:11:18;;;;;;;;;;;24.60;39.60;;;;;;490175;242;1233;-74
2022/11/16 12:13:19;;;;;;;;;;;24.40;40.00;;;;;;490158;242;1172;-75
2022/11/16 12:15:21;;;;;;;;;;;24.20;40.30;;;;;;490499;242;2106;-74
2022/11/16 12:17:22;;;;;;;;;;;24.10;40.60;;;;;;490285;242;1154;-74
2022/11/16 12:19:23;;;;;;;;;;;23.90;41.00;;;;;;490259;242;1099;-74
2022/11/16 12:21:25;;;;;;;;;;;23.80;41.20;;;;;;490190;242;1494;-74
2022/11/16 12:23:26;;;;;;;;;;;23.70;41.40;;;;;;490250;242;1152;-74
2022/11/16 12:25:27;;;;;;;;;;;23.70;41.50;;;;;;490335;242;1164;-74
2022/11/16 12:27:29;;;;;;;;;;;23.70;41.60;;;;;;490217;242;1354;-74
2022/11/16 12:29:30;;;;;;;;;;;23.70;41.60;;;;;;490143;242;1148;-74
2022/11/16 12:31:31;;;;;;;;;;;23.90;41.30;;;;;;490104;242;1184;-74
2022/11/16 12:33:33;;;;;;;;;;;24.00;41.10;;;;;;490075;242;2145;-74
2022/11/16 12:35:34;;;;;;;;;;;24.10;41.00;;;;;;489976;242;1138;-74
2022/11/16 12:37:35;;;;;;;;;;;24.30;40.70;;;;;;490326;242;1139;-74